Clinton, Michigan
Current Conditions -  °F | °C
As of 12:53 AM on Saturday 29 Nov 2014 (Local Time) from KARB Reporting Station
Overcast Overcast  
Wind Chill: 23°   Ceiling: 3800
Heat Index: 29°   Visibility: 9mi
Dew Point: 22°   Wind: 6mph
Humidity: 75%   Direction: 150°SSE
Pressure: 30.04"   Gusts: NA
Location:  42.07°N, 83.97°W
Report Text: KARB 290553Z AUTO 15005KT 9SM BKN038 OVC060 M02/M06 A3004 RMK AO2 SLP183 T10171056 11017 21039 58016
Loading
Personal Weather Stations






























Interactive Weather Map New forecast layout! Learn more

10-Day Weather Forecast

Advertisements
Track Severe Weather on mobile